Time;durP1;ratioP1;P1;durP2;ratioP2;P2;SDS_P1;SDS_P2;PMS_P1;PMS_P2;Temp;Humidity;BMP_temperature;BMP_pressure;BME280_temperature;BME280_humidity;BME280_pressure;Samples;Min_cycle;Max_cycle;Signal;HPM_P1;HPM_P2
2023/08/16 00:00:26;;;;;;;7.28;2.72;;;;;;;;;;4995340;28;100968;-79
2023/08/16 00:02:52;;;;;;;8.73;3.00;;;;;;;;;;4995634;28;98524;-79
2023/08/16 00:05:19;;;;;;;6.70;2.92;;;;;;;;;;5006879;28;99180;-79
2023/08/16 00:07:45;;;;;;;8.38;2.38;;;;;;;;;;5000003;28;98392;-78
2023/08/16 00:10:12;;;;;;;6.78;2.42;;;;;;;;;;4994009;28;99496;-78
2023/08/16 00:12:38;;;;;;;13.93;2.72;;;;;;;;;;4992028;28;99397;-80
2023/08/16 00:15:06;;;;;;;10.60;2.75;;;;;;;;;;5000047;28;98975;-80
2023/08/16 00:17:33;;;;;;;7.95;2.65;;;;;;;;;;4996145;28;100381;-80
2023/08/16 00:19:59;;;;;;;5.68;2.78;;;;;;;;;;4992530;28;100559;-81
2023/08/16 00:22:26;;;;;;;8.77;2.88;;;;;;;;;;4995966;28;98612;-80
2023/08/16 00:24:52;;;;;;;4.05;2.78;;;;;;;;;;4993259;28;100209;-80
2023/08/16 00:27:19;;;;;;;6.38;2.63;;;;;;;;;;4995834;28;98555;-80
2023/08/16 00:29:46;;;;;;;6.35;2.92;;;;;;;;;;4997055;28;99174;-80
2023/08/16 00:32:12;;;;;;;3.10;2.50;;;;;;;;;;4996314;28;99359;-80
2023/08/16 00:34:39;;;;;;;7.18;2.63;;;;;;;;;;4998530;28;98548;-79
2023/08/16 00:37:05;;;;;;;14.80;2.60;;;;;;;;;;4993186;28;100661;-79
2023/08/16 00:39:32;;;;;;;4.32;2.60;;;;;;;;;;4986551;28;100892;-87
2023/08/16 00:41:59;;;;;;;5.13;2.80;;;;;;;;;;4988917;28;99019;-85
2023/08/16 00:44:25;;;;;;;3.78;2.33;;;;;;;;;;4992414;28;100784;-79
2023/08/16 00:46:53;;;;;;;4.18;2.80;;;;;;;;;;4999750;28;100565;-80
2023/08/16 00:49:19;;;;;;;4.40;2.97;;;;;;;;;;4991711;28;100298;-79
2023/08/16 00:51:46;;;;;;;7.32;2.97;;;;;;;;;;4991803;28;102802;-80
2023/08/16 00:54:13;;;;;;;6.00;2.95;;;;;;;;;;4989297;28;97828;-79
2023/08/16 00:56:39;;;;;;;8.25;3.28;;;;;;;;;;4999623;28;98774;-80
2023/08/16 00:59:06;;;;;;;5.32;3.22;;;;;;;;;;4993668;28;99404;-80
2023/08/16 01:01:32;;;;;;;7.05;3.72;;;;;;;;;;5003829;28;99508;-79
2023/08/16 01:04:00;;;;;;;6.50;3.60;;;;;;;;;;4990845;28;100957;-81
2023/08/16 01:06:26;;;;;;;8.07;3.17;;;;;;;;;;4994950;28;100003;-81
2023/08/16 01:08:53;;;;;;;4.65;3.38;;;;;;;;;;4999883;28;98505;-82
2023/08/16 01:11:27;;;;;;;8.13;2.97;;;;;;;;;;4994771;28;100526;-82
2023/08/16 01:14:01;;;;;;;6.65;2.92;;;;;;;;;;4988811;28;99137;-82
2023/08/16 01:16:28;;;;;;;3.20;2.63;;;;;;;;;;4996602;28;102103;-83
2023/08/16 01:18:55;;;;;;;10.18;3.15;;;;;;;;;;4995170;28;99948;-82
2023/08/16 01:21:23;;;;;;;7.65;3.20;;;;;;;;;;4994807;28;98516;-81
2023/08/16 01:23:50;;;;;;;8.32;3.13;;;;;;;;;;4992108;28;100370;-81
2023/08/16 01:26:16;;;;;;;4.47;2.95;;;;;;;;;;5002634;28;101718;-81
2023/08/16 01:28:44;;;;;;;11.68;3.50;;;;;;;;;;5000780;28;98548;-80
2023/08/16 01:31:10;;;;;;;6.13;3.05;;;;;;;;;;4993721;28;99204;-81
2023/08/16 01:33:37;;;;;;;9.30;3.30;;;;;;;;;;4986633;28;98846;-81
2023/08/16 01:36:03;;;;;;;6.72;3.25;;;;;;;;;;4995069;28;99538;-79
2023/08/16 01:38:31;;;;;;;7.07;3.20;;;;;;;;;;4992497;28;103214;-83
2023/08/16 01:41:09;;;;;;;6.20;3.38;;;;;;;;;;4988426;28;99662;-83
2023/08/16 01:43:36;;;;;;;11.25;3.33;;;;;;;;;;4987707;28;100953;-83
2023/08/16 01:46:03;;;;;;;12.60;3.60;;;;;;;;;;4998062;28;100984;-82
2023/08/16 01:48:31;;;;;;;4.57;3.00;;;;;;;;;;5002428;28;98510;-84
2023/08/16 01:50:57;;;;;;;4.97;3.13;;;;;;;;;;4993409;28;100997;-84
2023/08/16 01:53:24;;;;;;;5.22;3.20;;;;;;;;;;4991479;28;100437;-83
2023/08/16 01:55:50;;;;;;;8.15;3.40;;;;;;;;;;4998925;28;100194;-84
2023/08/16 01:58:17;;;;;;;5.35;3.65;;;;;;;;;;4994175;28;101024;-82
2023/08/16 02:00:43;;;;;;;5.68;3.50;;;;;;;;;;4991589;28;99289;-83
2023/08/16 02:03:09;;;;;;;7.40;4.15;;;;;;;;;;5000426;28;100304;-82
2023/08/16 02:05:36;;;;;;;8.55;4.00;;;;;;;;;;4993879;28;100891;-83
2023/08/16 02:08:03;;;;;;;7.82;3.72;;;;;;;;;;4993928;28;99271;-83
2023/08/16 02:10:29;;;;;;;7.43;3.80;;;;;;;;;;4996961;28;99655;-83
2023/08/16 02:12:55;;;;;;;9.40;4.20;;;;;;;;;;4989390;28;100838;-83
2023/08/16 02:15:22;;;;;;;9.38;3.88;;;;;;;;;;5002924;28;100186;-82
2023/08/16 02:17:48;;;;;;;5.40;3.33;;;;;;;;;;4991013;28;100575;-83
2023/08/16 02:20:15;;;;;;;6.72;4.30;;;;;;;;;;4999227;28;98498;-83
2023/08/16 02:22:41;;;;;;;6.22;4.05;;;;;;;;;;4994282;28;100154;-87
2023/08/16 02:25:09;;;;;;;5.80;3.35;;;;;;;;;;4994029;28;100632;-83
2023/08/16 02:27:35;;;;;;;7.22;4.25;;;;;;;;;;4999570;28;98556;-83
2023/08/16 02:30:02;;;;;;;9.75;4.95;;;;;;;;;;4989886;28;100627;-83
2023/08/16 02:32:28;;;;;;;9.85;4.60;;;;;;;;;;4989806;28;99809;-80
2023/08/16 02:34:55;;;;;;;8.27;4.85;;;;;;;;;;4993827;28;98492;-81
2023/08/16 02:37:22;;;;;;;6.75;4.30;;;;;;;;;;4999416;28;99476;-82
2023/08/16 02:39:49;;;;;;;5.00;3.72;;;;;;;;;;4985794;28;99731;-81
2023/08/16 02:42:16;;;;;;;4.72;3.47;;;;;;;;;;4991351;28;99880;-81
2023/08/16 02:44:42;;;;;;;6.93;4.22;;;;;;;;;;4991232;28;100437;-81
2023/08/16 02:47:09;;;;;;;7.78;3.72;;;;;;;;;;4990581;28;99964;-87
2023/08/16 02:49:36;;;;;;;5.15;3.47;;;;;;;;;;4995139;28;100289;-79
2023/08/16 02:52:02;;;;;;;7.22;4.07;;;;;;;;;;4984860;28;100550;-79
2023/08/16 02:54:29;;;;;;;8.93;4.05;;;;;;;;;;4994228;28;98539;-79
2023/08/16 02:56:55;;;;;;;10.45;4.22;;;;;;;;;;5003246;28;103103;-78
2023/08/16 02:59:22;;;;;;;7.07;3.70;;;;;;;;;;4995352;28;98619;-78
2023/08/16 03:01:48;;;;;;;5.63;3.80;;;;;;;;;;4991078;28;99231;-78
2023/08/16 03:04:15;;;;;;;14.57;4.13;;;;;;;;;;4991718;28;101418;-82
2023/08/16 03:06:41;;;;;;;7.72;3.80;;;;;;;;;;4991147;28;98713;-82
2023/08/16 03:09:09;;;;;;;6.05;3.67;;;;;;;;;;4988372;28;99485;-83
2023/08/16 03:11:35;;;;;;;7.13;4.43;;;;;;;;;;4993638;28;100610;-83
2023/08/16 03:14:02;;;;;;;7.25;3.70;;;;;;;;;;4992472;28;98559;-80
2023/08/16 03:16:28;;;;;;;7.97;4.13;;;;;;;;;;4983823;28;99372;-83
2023/08/16 03:18:55;;;;;;;5.43;3.47;;;;;;;;;;4994005;28;100980;-80
2023/08/16 03:21:21;;;;;;;6.35;4.00;;;;;;;;;;5000152;28;100195;-80
2023/08/16 03:23:48;;;;;;;6.28;3.72;;;;;;;;;;4992237;28;99849;-80
2023/08/16 03:26:14;;;;;;;5.10;3.85;;;;;;;;;;4995904;28;98567;-80
2023/08/16 03:28:41;;;;;;;5.97;3.90;;;;;;;;;;5005282;28;99830;-80
2023/08/16 03:31:08;;;;;;;7.28;4.22;;;;;;;;;;4996426;28;99701;-81
2023/08/16 03:33:34;;;;;;;6.22;4.07;;;;;;;;;;4995725;28;98859;-80
2023/08/16 03:36:00;;;;;;;6.30;3.92;;;;;;;;;;5003480;28;99456;-82
2023/08/16 03:38:27;;;;;;;4.40;4.00;;;;;;;;;;4991931;28;100411;-79
2023/08/16 03:40:54;;;;;;;4.88;4.35;;;;;;;;;;5005556;28;98657;-78
2023/08/16 03:43:20;;;;;;;5.32;4.10;;;;;;;;;;4994684;28;100541;-78
2023/08/16 03:45:47;;;;;;;5.30;3.75;;;;;;;;;;5000167;28;97859;-79
2023/08/16 03:48:14;;;;;;;4.80;3.40;;;;;;;;;;4991795;28;98512;-81
2023/08/16 03:50:40;;;;;;;5.05;3.63;;;;;;;;;;4995780;28;100183;-81
2023/08/16 03:53:07;;;;;;;7.75;3.45;;;;;;;;;;5000393;28;99303;-86
2023/08/16 03:55:33;;;;;;;9.40;3.63;;;;;;;;;;5002610;28;100748;-87
2023/08/16 03:57:59;;;;;;;8.38;3.65;;;;;;;;;;4994012;28;100515;-86
2023/08/16 04:00:26;;;;;;;6.72;3.92;;;;;;;;;;5006964;28;99001;-86
2023/08/16 04:02:52;;;;;;;4.65;3.53;;;;;;;;;;5000446;28;99580;-86
2023/08/16 04:05:21;;;;;;;6.93;3.72;;;;;;;;;;4997781;28;98922;-80
2023/08/16 04:07:48;;;;;;;4.18;3.50;;;;;;;;;;5005587;28;100302;-81
2023/08/16 04:10:14;;;;;;;6.85;3.30;;;;;;;;;;4995242;28;99491;-80
2023/08/16 04:12:40;;;;;;;4.35;3.30;;;;;;;;;;4992134;28;99621;-80
2023/08/16 04:15:07;;;;;;;7.93;3.90;;;;;;;;;;4994679;28;103180;-81
2023/08/16 04:17:36;;;;;;;6.80;3.90;;;;;;;;;;4996625;28;100580;-80
2023/08/16 04:20:05;;;;;;;7.72;4.38;;;;;;;;;;5008218;28;98988;-80
2023/08/16 04:22:32;;;;;;;8.37;4.43;;;;;;;;;;4998857;28;102303;-80
2023/08/16 04:24:58;;;;;;;6.10;3.70;;;;;;;;;;5002795;28;100806;-80
2023/08/16 04:27:25;;;;;;;8.45;4.30;;;;;;;;;;4995766;28;99175;-81
2023/08/16 04:29:51;;;;;;;3.85;3.22;;;;;;;;;;4997547;28;100624;-80
2023/08/16 04:32:18;;;;;;;8.25;3.67;;;;;;;;;;4993008;28;98613;-80
2023/08/16 04:34:45;;;;;;;7.22;3.72;;;;;;;;;;4998208;28;99162;-78
2023/08/16 04:37:11;;;;;;;7.93;3.92;;;;;;;;;;4994762;28;99507;-79
2023/08/16 04:39:37;;;;;;;4.70;3.95;;;;;;;;;;4996968;28;98694;-78
2023/08/16 04:42:04;;;;;;;4.65;4.10;;;;;;;;;;4983887;28;99285;-78
2023/08/16 04:44:30;;;;;;;6.10;4.28;;;;;;;;;;4999871;28;99625;-78
2023/08/16 04:46:57;;;;;;;7.80;3.78;;;;;;;;;;4992894;28;99603;-78
2023/08/16 04:49:26;;;;;;;12.68;4.47;;;;;;;;;;5000427;28;99788;-79
2023/08/16 04:51:53;;;;;;;;;;;;;;;;;;4996649;28;98494;-78
2023/08/16 04:54:20;;;;;;;6.13;4.47;;;;;;;;;;4994785;28;129350;-78
2023/08/16 04:56:48;;;;;;;7.18;4.32;;;;;;;;;;4996506;28;101071;-81
2023/08/16 04:59:15;;;;;;;9.77;4.40;;;;;;;;;;5004357;28;98144;-81
2023/08/16 05:01:41;;;;;;;12.45;4.18;;;;;;;;;;5002836;28;99823;-80
2023/08/16 05:04:09;;;;;;;5.15;4.13;;;;;;;;;;4995713;28;100125;-80
2023/08/16 05:06:36;;;;;;;7.55;3.88;;;;;;;;;;4999296;28;99332;-80
2023/08/16 05:09:02;;;;;;;9.68;4.45;;;;;;;;;;4992404;28;100430;-80
2023/08/16 05:11:32;;;;;;;6.90;3.92;;;;;;;;;;4999634;28;98526;-81
2023/08/16 05:13:58;;;;;;;7.63;4.00;;;;;;;;;;4990303;28;100144;-85
2023/08/16 05:16:25;;;;;;;5.13;3.65;;;;;;;;;;4995722;28;100756;-80
2023/08/16 05:18:52;;;;;;;6.50;4.05;;;;;;;;;;4992248;28;99011;-80
2023/08/16 05:21:19;;;;;;;7.40;4.45;;;;;;;;;;4996677;28;100203;-84
2023/08/16 05:23:45;;;;;;;7.70;4.43;;;;;;;;;;4991603;28;99160;-78
2023/08/16 05:26:12;;;;;;;8.65;4.18;;;;;;;;;;4992746;28;99282;-78
2023/08/16 05:28:38;;;;;;;15.63;4.80;;;;;;;;;;4992886;28;100480;-89
2023/08/16 05:31:08;;;;;;;4.50;4.10;;;;;;;;;;4987040;28;99488;-88
2023/08/16 05:33:35;;;;;;;;;;;;;;;;;;5000710;28;100861;-89
2023/08/16 05:36:01;;;;;;;12.63;4.43;;;;;;;;;;4999395;28;129422;-90
2023/08/16 05:38:28;;;;;;;8.00;4.20;;;;;;;;;;4993996;28;98781;-90
2023/08/16 05:40:54;;;;;;;9.73;4.30;;;;;;;;;;4996501;28;100373;-89
2023/08/16 05:43:22;;;;;;;8.45;4.47;;;;;;;;;;4987817;28;100154;-88
2023/08/16 05:45:48;;;;;;;6.78;5.15;;;;;;;;;;4996254;28;98999;-89
2023/08/16 05:48:15;;;;;;;6.22;4.60;;;;;;;;;;4996933;28;100541;-88
2023/08/16 05:50:41;;;;;;;12.85;4.93;;;;;;;;;;4994518;28;100423;-89
2023/08/16 05:53:08;;;;;;;6.97;4.95;;;;;;;;;;4987879;28;100567;-82
2023/08/16 05:55:34;;;;;;;7.30;5.10;;;;;;;;;;4992407;28;101276;-84
2023/08/16 05:58:01;;;;;;;10.45;4.95;;;;;;;;;;4993011;28;99242;-84
2023/08/16 06:00:29;;;;;;;10.27;5.50;;;;;;;;;;4991179;28;103149;-84
2023/08/16 06:02:56;;;;;;;15.32;5.68;;;;;;;;;;4985183;28;100972;-84
2023/08/16 06:05:22;;;;;;;9.68;6.00;;;;;;;;;;4992172;28;98769;-84
2023/08/16 06:07:49;;;;;;;6.20;5.32;;;;;;;;;;4998245;28;104012;-86
2023/08/16 06:10:15;;;;;;;8.32;5.13;;;;;;;;;;4993955;28;99844;-84
2023/08/16 06:12:42;;;;;;;12.73;5.68;;;;;;;;;;4998806;28;98384;-83
2023/08/16 06:15:11;;;;;;;15.00;5.97;;;;;;;;;;4994768;28;100615;-81
2023/08/16 06:17:38;;;;;;;9.65;5.82;;;;;;;;;;4993154;28;98651;-81
2023/08/16 06:20:05;;;;;;;7.88;5.97;;;;;;;;;;4995043;28;99396;-82
2023/08/16 06:22:33;;;;;;;14.60;5.97;;;;;;;;;;4995669;28;100547;-82
2023/08/16 06:25:00;;;;;;;13.05;5.78;;;;;;;;;;4995792;28;98683;-82
2023/08/16 06:27:26;;;;;;;9.75;6.00;;;;;;;;;;4998794;28;100660;-82
2023/08/16 06:29:53;;;;;;;20.88;6.07;;;;;;;;;;4990772;28;100517;-82
2023/08/16 06:32:19;;;;;;;15.73;6.68;;;;;;;;;;4993269;28;98574;-82
2023/08/16 06:34:46;;;;;;;16.63;6.00;;;;;;;;;;5002242;28;99576;-82
2023/08/16 06:37:12;;;;;;;16.33;5.65;;;;;;;;;;4989706;28;98147;-82
2023/08/16 06:39:39;;;;;;;12.52;6.30;;;;;;;;;;4985448;28;99645;-82
2023/08/16 06:42:06;;;;;;;16.98;6.30;;;;;;;;;;4991565;28;100537;-82
2023/08/16 06:44:32;;;;;;;16.13;6.97;;;;;;;;;;4991583;28;99319;-81
2023/08/16 06:46:59;;;;;;;11.95;6.05;;;;;;;;;;4992080;28;100733;-81
2023/08/16 06:49:25;;;;;;;15.95;6.25;;;;;;;;;;4983658;28;100617;-81
2023/08/16 06:51:51;;;;;;;16.83;6.70;;;;;;;;;;4988976;28;98549;-81
2023/08/16 06:54:18;;;;;;;10.32;6.32;;;;;;;;;;5001348;28;100375;-81
2023/08/16 06:56:44;;;;;;;14.52;6.85;;;;;;;;;;4992533;28;98948;-80
2023/08/16 06:59:10;;;;;;;16.55;7.13;;;;;;;;;;4994960;28;100316;-81
2023/08/16 07:01:37;;;;;;;15.25;7.60;;;;;;;;;;4997325;28;99832;-81
2023/08/16 07:04:03;;;;;;;17.42;7.60;;;;;;;;;;5000322;28;98952;-81
2023/08/16 07:06:31;;;;;;;16.35;7.55;;;;;;;;;;5000776;28;103779;-80
2023/08/16 07:08:58;;;;;;;13.50;6.20;;;;;;;;;;4993410;28;101585;-81
2023/08/16 07:11:25;;;;;;;15.55;6.63;;;;;;;;;;4992512;28;98481;-81
2023/08/16 07:13:52;;;;;;;13.82;6.40;;;;;;;;;;4988603;28;100884;-81
2023/08/16 07:16:18;;;;;;;13.52;6.00;;;;;;;;;;4997456;28;99767;-81
2023/08/16 07:18:46;;;;;;;16.52;5.75;;;;;;;;;;4988595;28;100376;-81
2023/08/16 07:21:12;;;;;;;12.60;5.72;;;;;;;;;;4985553;28;100559;-81
2023/08/16 07:23:39;;;;;;;11.70;4.97;;;;;;;;;;4997749;28;98676;-80
2023/08/16 07:26:05;;;;;;;14.40;5.50;;;;;;;;;;4995855;28;103015;-81
2023/08/16 07:28:31;;;;;;;19.85;5.68;;;;;;;;;;4988186;28;100860;-81
2023/08/16 07:30:58;;;;;;;8.60;5.05;;;;;;;;;;4991269;28;98529;-81
2023/08/16 07:33:24;;;;;;;9.05;5.10;;;;;;;;;;4987416;28;100181;-82
2023/08/16 07:35:51;;;;;;;15.25;5.80;;;;;;;;;;4991586;28;101056;-81
2023/08/16 07:38:18;;;;;;;11.75;5.60;;;;;;;;;;4990872;28;98566;-81
2023/08/16 07:40:47;;;;;;;9.88;5.82;;;;;;;;;;4993434;28;100509;-80
2023/08/16 07:43:14;;;;;;;18.27;7.03;;;;;;;;;;4991466;28;98741;-82
2023/08/16 07:45:40;;;;;;;13.35;6.70;;;;;;;;;;4992855;28;100761;-81
2023/08/16 07:48:07;;;;;;;11.07;6.85;;;;;;;;;;4991517;28;100885;-81
2023/08/16 07:50:33;;;;;;;13.20;6.03;;;;;;;;;;4996103;28;97868;-81
2023/08/16 07:53:00;;;;;;;15.52;6.22;;;;;;;;;;4991706;28;99164;-81
2023/08/16 07:55:30;;;;;;;11.32;4.82;;;;;;;;;;4993449;28;100545;-81
2023/08/16 07:57:57;;;;;;;12.82;4.45;;;;;;;;;;5001114;28;99286;-82
2023/08/16 08:00:23;;;;;;;9.50;3.70;;;;;;;;;;4997420;28;101092;-82
2023/08/16 08:02:50;;;;;;;12.90;3.83;;;;;;;;;;4990059;28;99258;-81
2023/08/16 08:05:25;;;;;;;10.88;3.63;;;;;;;;;;4994559;28;100449;-82
2023/08/16 08:07:55;;;;;;;8.80;4.22;;;;;;;;;;4999126;28;100439;-81
2023/08/16 08:10:22;;;;;;;8.88;4.75;;;;;;;;;;4992836;28;99037;-82
2023/08/16 08:12:48;;;;;;;13.10;3.38;;;;;;;;;;4993677;28;102104;-82
2023/08/16 08:15:15;;;;;;;8.65;2.53;;;;;;;;;;4990823;28;99976;-82
2023/08/16 08:17:41;;;;;;;11.13;2.67;;;;;;;;;;4992283;28;98662;-82
2023/08/16 08:20:08;;;;;;;8.20;2.75;;;;;;;;;;4993214;28;100223;-81
2023/08/16 08:22:34;;;;;;;4.38;2.40;;;;;;;;;;4989528;28;100196;-82
2023/08/16 08:25:01;;;;;;;3.60;2.05;;;;;;;;;;4992538;28;100900;-82
2023/08/16 08:27:27;;;;;;;5.82;1.95;;;;;;;;;;5004877;28;99205;-80
2023/08/16 08:29:55;;;;;;;4.38;1.92;;;;;;;;;;4991478;28;99926;-82
2023/08/16 08:32:21;;;;;;;5.63;1.85;;;;;;;;;;4992551;28;99635;-82
2023/08/16 08:34:48;;;;;;;11.02;1.75;;;;;;;;;;5000342;28;100558;-80
2023/08/16 08:37:15;;;;;;;6.43;1.95;;;;;;;;;;5001783;28;98690;-83
2023/08/16 08:39:41;;;;;;;10.85;1.60;;;;;;;;;;4990847;28;101415;-83
2023/08/16 08:42:08;;;;;;;8.43;1.50;;;;;;;;;;4996921;28;99492;-83
2023/08/16 08:44:38;;;;;;;4.53;1.63;;;;;;;;;;5010389;28;98843;-82
2023/08/16 08:47:05;;;;;;;3.53;1.40;;;;;;;;;;4993243;28;101316;-83
2023/08/16 08:49:41;;;;;;;3.63;1.35;;;;;;;;;;4993495;28;98989;-82
2023/08/16 08:52:08;;;;;;;5.55;1.42;;;;;;;;;;5002913;28;100640;-83
2023/08/16 08:54:35;;;;;;;6.93;1.20;;;;;;;;;;4989141;28;99510;-82
2023/08/16 08:57:03;;;;;;;9.18;1.50;;;;;;;;;;4995290;28;98664;-82
2023/08/16 08:59:32;;;;;;;2.25;1.10;;;;;;;;;;4995803;28;100241;-82
2023/08/16 09:02:00;;;;;;;6.68;1.38;;;;;;;;;;4999852;28;100027;-82
2023/08/16 09:04:28;;;;;;;2.83;1.35;;;;;;;;;;5002336;28;97852;-81
2023/08/16 09:06:55;;;;;;;8.75;1.58;;;;;;;;;;4997643;28;99466;-81
2023/08/16 09:09:24;;;;;;;7.53;1.42;;;;;;;;;;4994272;28;98561;-81
2023/08/16 09:11:51;;;;;;;2.45;1.48;;;;;;;;;;4994259;28;100179;-81
2023/08/16 09:14:17;;;;;;;5.40;1.30;;;;;;;;;;4991890;28;100564;-81
2023/08/16 09:16:44;;;;;;;6.20;1.48;;;;;;;;;;4999611;28;98495;-81
2023/08/16 09:19:14;;;;;;;5.63;1.48;;;;;;;;;;4998230;28;99217;-82
2023/08/16 09:21:41;;;;;;;4.05;1.05;;;;;;;;;;5000847;28;100906;-82
2023/08/16 09:24:07;;;;;;;2.75;1.20;;;;;;;;;;4988212;28;98538;-82
2023/08/16 09:26:35;;;;;;;3.55;1.35;;;;;;;;;;4995011;28;100201;-82
2023/08/16 09:29:02;;;;;;;2.08;1.08;;;;;;;;;;5000755;28;98399;-82
2023/08/16 09:31:30;;;;;;;5.32;1.13;;;;;;;;;;4993268;28;99495;-82
2023/08/16 09:34:01;;;;;;;2.90;1.00;;;;;;;;;;4998034;28;100462;-81
2023/08/16 09:36:30;;;;;;;3.15;1.55;;;;;;;;;;4988397;28;99474;-82
2023/08/16 09:39:01;;;;;;;5.83;1.10;;;;;;;;;;4994312;28;100991;-82
2023/08/16 09:41:27;;;;;;;3.63;1.25;;;;;;;;;;4991804;28;100885;-81
2023/08/16 09:44:01;;;;;;;5.20;1.48;;;;;;;;;;4997117;28;98903;-82
2023/08/16 09:46:29;;;;;;;4.75;1.73;;;;;;;;;;4995401;28;100283;-81
2023/08/16 09:49:08;;;;;;;3.78;1.25;;;;;;;;;;5005000;28;103577;-82
2023/08/16 09:51:38;;;;;;;5.13;1.52;;;;;;;;;;4989306;28;100581;-81
2023/08/16 09:54:09;;;;;;;8.80;1.42;;;;;;;;;;4991169;28;99403;-82
2023/08/16 09:56:35;;;;;;;15.35;1.83;;;;;;;;;;4994380;28;100334;-81
2023/08/16 09:59:04;;;;;;;5.25;1.40;;;;;;;;;;4992344;28;100384;-82
2023/08/16 10:01:51;;;;;;;3.25;1.08;;;;;;;;;;5000306;28;103316;-81
2023/08/16 10:04:20;;;;;;;4.32;1.13;;;;;;;;;;5003659;28;99024;-82
2023/08/16 10:07:06;;;;;;;4.85;1.17;;;;;;;;;;4992492;28;101800;-81
2023/08/16 10:09:36;;;;;;;4.30;1.07;;;;;;;;;;4997261;28;100232;-81
2023/08/16 10:12:03;;;;;;;5.40;1.00;;;;;;;;;;5006323;28;98529;-82
2023/08/16 10:14:30;;;;;;;1.95;0.68;;;;;;;;;;4991982;28;100558;-80
2023/08/16 10:17:00;;;;;;;3.88;1.00;;;;;;;;;;4997473;28;98661;-80
2023/08/16 10:19:27;;;;;;;;;;;;;;;;;;4986148;28;100211;-80
2023/08/16 10:21:53;;;;;;;2.15;1.08;;;;;;;;;;4987009;28;130354;-80
2023/08/16 10:24:20;;;;;;;4.15;1.17;;;;;;;;;;5000173;28;98601;-81
2023/08/16 10:26:50;;;;;;;2.38;1.10;;;;;;;;;;4987652;28;101481;-81
2023/08/16 10:29:21;;;;;;;3.83;1.10;;;;;;;;;;4980535;28;100385;-81
2023/08/16 10:31:49;;;;;;;3.15;1.20;;;;;;;;;;4992347;28;98640;-82
2023/08/16 10:34:16;;;;;;;2.88;1.20;;;;;;;;;;4991430;28;99283;-82
2023/08/16 10:36:43;;;;;;;3.83;1.40;;;;;;;;;;4983483;28;98935;-82
2023/08/16 10:39:19;;;;;;;3.67;1.20;;;;;;;;;;4989890;28;100167;-81
2023/08/16 10:41:46;;;;;;;2.35;1.15;;;;;;;;;;4994865;28;99512;-81
2023/08/16 10:44:20;;;;;;;3.60;1.42;;;;;;;;;;5003730;28;97809;-81
2023/08/16 10:46:48;;;;;;;5.45;1.33;;;;;;;;;;4995203;28;99487;-82
2023/08/16 10:49:15;;;;;;;6.03;1.10;;;;;;;;;;4992301;28;100673;-82
2023/08/16 10:51:44;;;;;;;5.28;1.35;;;;;;;;;;4988055;28;99374;-81
2023/08/16 10:54:11;;;;;;;1.85;0.80;;;;;;;;;;5005020;28;101140;-82
2023/08/16 10:56:44;;;;;;;1.75;1.00;;;;;;;;;;4988104;28;98550;-82
2023/08/16 10:59:12;;;;;;;4.32;1.15;;;;;;;;;;4986827;28;100318;-82
2023/08/16 11:01:48;;;;;;;7.15;1.10;;;;;;;;;;4979416;28;103362;-82
2023/08/16 11:04:14;;;;;;;1.60;0.90;;;;;;;;;;4985783;28;98761;-82
2023/08/16 11:06:41;;;;;;;4.05;1.10;;;;;;;;;;4992533;28;99124;-81
2023/08/16 11:09:29;;;;;;;2.35;1.20;;;;;;;;;;5002821;28;98985;-82
2023/08/16 11:12:00;;;;;;;0.83;0.70;;;;;;;;;;4991923;28;98866;-82
2023/08/16 11:14:26;;;;;;;;;;;;;;;;;;4991744;28;100385;-82
2023/08/16 11:16:56;;;;;;;3.40;1.00;;;;;;;;;;4994072;28;129361;-82
2023/08/16 11:19:22;;;;;;;8.82;1.10;;;;;;;;;;4989879;28;101335;-82
2023/08/16 11:21:51;;;;;;;2.45;1.00;;;;;;;;;;5001106;28;103206;-82
2023/08/16 11:24:17;;;;;;;8.32;1.45;;;;;;;;;;4991348;28;98510;-82
2023/08/16 11:26:45;;;;;;;3.22;1.23;;;;;;;;;;4984810;28;100214;-82
2023/08/16 11:29:11;;;;;;;2.83;1.10;;;;;;;;;;4989420;28;102579;-82
2023/08/16 11:31:38;;;;;;;2.47;1.10;;;;;;;;;;4996899;28;99119;-82
2023/08/16 11:34:10;;;;;;;4.90;1.50;;;;;;;;;;5003984;28;100449;-82
2023/08/16 11:36:37;;;;;;;5.88;1.10;;;;;;;;;;5002450;28;100443;-83
2023/08/16 11:39:04;;;;;;;7.10;1.33;;;;;;;;;;4991985;28;98619;-82
2023/08/16 11:41:31;;;;;;;4.60;1.33;;;;;;;;;;4992113;28;101278;-82
2023/08/16 11:43:59;;;;;;;3.55;1.10;;;;;;;;;;4996063;28;98451;-82
2023/08/16 11:46:27;;;;;;;7.97;1.23;;;;;;;;;;4998978;28;100245;-82
2023/08/16 11:48:54;;;;;;;2.33;0.77;;;;;;;;;;5005872;28;100771;-82
2023/08/16 11:51:20;;;;;;;2.88;0.70;;;;;;;;;;5007775;28;98519;-82
2023/08/16 11:53:47;;;;;;;1.48;0.75;;;;;;;;;;5000421;28;100326;-82
2023/08/16 11:56:13;;;;;;;3.83;0.95;;;;;;;;;;4994685;28;100910;-82
2023/08/16 11:58:46;;;;;;;1.02;0.88;;;;;;;;;;4996150;28;98692;-81
2023/08/16 12:01:16;;;;;;;5.35;1.00;;;;;;;;;;4999720;28;98560;-81
2023/08/16 12:03:43;;;;;;;;;;;;;;;;;;4999293;28;98609;-81
2023/08/16 12:06:09;;;;;;;2.20;1.30;;;;;;;;;;4987585;28;129759;-81
2023/08/16 12:08:36;;;;;;;2.42;1.10;;;;;;;;;;4985455;28;100538;-80
2023/08/16 12:11:03;;;;;;;2.63;1.23;;;;;;;;;;4987947;28;98579;-80
2023/08/16 12:13:29;;;;;;;2.97;0.90;;;;;;;;;;4991026;28;99202;-80
2023/08/16 12:15:56;;;;;;;2.13;1.08;;;;;;;;;;5002451;28;100849;-81
2023/08/16 12:18:22;;;;;;;3.38;1.02;;;;;;;;;;5002544;28;98561;-81
2023/08/16 12:20:56;;;;;;;2.15;0.95;;;;;;;;;;4989620;28;100654;-81
2023/08/16 12:23:22;;;;;;;4.05;0.95;;;;;;;;;;5005090;28;98723;-79
2023/08/16 12:25:49;;;;;;;6.05;1.00;;;;;;;;;;4992308;28;98468;-80
2023/08/16 12:28:15;;;;;;;3.85;1.20;;;;;;;;;;4996528;28;100488;-81
2023/08/16 12:30:41;;;;;;;1.55;0.85;;;;;;;;;;4982881;28;99419;-79
2023/08/16 12:33:08;;;;;;;4.18;1.20;;;;;;;;;;5004269;28;101311;-89
2023/08/16 12:35:36;;;;;;;4.05;1.08;;;;;;;;;;5005832;28;99417;-84
2023/08/16 12:38:08;;;;;;;4.00;1.00;;;;;;;;;;4995533;28;98536;-84
2023/08/16 12:40:34;;;;;;;2.15;0.80;;;;;;;;;;4989092;28;100156;-84
2023/08/16 12:43:02;;;;;;;4.28;0.90;;;;;;;;;;4989142;28;99698;-84
2023/08/16 12:45:28;;;;;;;2.55;0.82;;;;;;;;;;5001570;28;98476;-84
2023/08/16 12:47:55;;;;;;;3.58;1.02;;;;;;;;;;4989785;28;100012;-85
2023/08/16 12:50:22;;;;;;;1.70;0.80;;;;;;;;;;4995271;28;99052;-85
2023/08/16 12:52:48;;;;;;;4.03;1.52;;;;;;;;;;4995022;28;100139;-85
2023/08/16 12:55:15;;;;;;;2.40;0.70;;;;;;;;;;4999486;28;101633;-85
2023/08/16 12:57:41;;;;;;;6.28;1.13;;;;;;;;;;5004577;28;98887;-85
2023/08/16 13:00:11;;;;;;;2.28;0.90;;;;;;;;;;5003567;28;100270;-84
2023/08/16 13:02:39;;;;;;;1.25;0.70;;;;;;;;;;4986176;28;99403;-85
2023/08/16 13:05:07;;;;;;;1.70;0.75;;;;;;;;;;5001635;28;98674;-85
2023/08/16 13:07:37;;;;;;;4.53;0.70;;;;;;;;;;4997602;28;100549;-84
2023/08/16 13:10:08;;;;;;;2.90;0.97;;;;;;;;;;5004044;28;98626;-86
2023/08/16 13:12:50;;;;;;;3.63;0.80;;;;;;;;;;4995073;28;99417;-86
2023/08/16 13:15:19;;;;;;;4.33;0.70;;;;;;;;;;4989477;28;100470;-85
2023/08/16 13:17:48;;;;;;;2.50;0.60;;;;;;;;;;4990318;28;98626;-86
2023/08/16 13:20:35;;;;;;;1.27;0.80;;;;;;;;;;4993753;28;102388;-85
2023/08/16 13:23:04;;;;;;;2.33;0.75;;;;;;;;;;4988012;28;100365;-85
2023/08/16 13:25:33;;;;;;;0.97;0.70;;;;;;;;;;4987250;28;99525;-86
2023/08/16 13:28:06;;;;;;;3.65;1.13;;;;;;;;;;4994965;28;100185;-86
2023/08/16 13:30:47;;;;;;;2.63;0.73;;;;;;;;;;4983726;28;98937;-86
2023/08/16 13:33:18;;;;;;;2.50;0.85;;;;;;;;;;4983278;28;100254;-88
2023/08/16 13:35:47;;;;;;;1.42;0.80;;;;;;;;;;5001568;28;101738;-89
2023/08/16 13:38:16;;;;;;;1.60;0.83;;;;;;;;;;4994360;28;97832;-89
2023/08/16 13:40:47;;;;;;;1.77;0.90;;;;;;;;;;5003560;28;100942;-89
2023/08/16 13:43:19;;;;;;;1.35;0.73;;;;;;;;;;4994576;28;101004;-89
2023/08/16 13:45:51;;;;;;;4.35;0.80;;;;;;;;;;4997098;28;99665;-86
2023/08/16 13:48:18;;;;;;;1.85;0.88;;;;;;;;;;4992007;28;100783;-87
2023/08/16 13:50:45;;;;;;;1.38;0.80;;;;;;;;;;5003642;28;100615;-85
2023/08/16 13:53:11;;;;;;;2.47;0.95;;;;;;;;;;4990466;28;99753;-86
2023/08/16 13:55:38;;;;;;;3.42;0.85;;;;;;;;;;4992265;28;100562;-85
2023/08/16 13:58:04;;;;;;;1.63;0.90;;;;;;;;;;4996248;28;98784;-85
2023/08/16 14:00:31;;;;;;;3.53;1.00;;;;;;;;;;4994016;28;98951;-85
2023/08/16 14:03:00;;;;;;;2.38;0.95;;;;;;;;;;4998500;28;99948;-85
2023/08/16 14:05:26;;;;;;;3.25;0.80;;;;;;;;;;5002019;28;98502;-85
2023/08/16 14:07:53;;;;;;;2.55;0.80;;;;;;;;;;4993276;28;100371;-85
2023/08/16 14:10:21;;;;;;;7.15;0.93;;;;;;;;;;4990072;28;101283;-85
2023/08/16 14:12:47;;;;;;;1.42;1.05;;;;;;;;;;5000815;28;98770;-85
2023/08/16 14:15:14;;;;;;;2.00;0.88;;;;;;;;;;4987912;28;99337;-85
2023/08/16 14:17:42;;;;;;;1.08;0.70;;;;;;;;;;4999690;28;98731;-85
2023/08/16 14:20:09;;;;;;;2.25;0.80;;;;;;;;;;4997495;28;102091;-86
2023/08/16 14:22:35;;;;;;;1.63;0.80;;;;;;;;;;4995337;28;100527;-85
2023/08/16 14:25:01;;;;;;;5.35;1.20;;;;;;;;;;4994236;28;98410;-85
2023/08/16 14:27:28;;;;;;;2.78;0.70;;;;;;;;;;5003484;28;100281;-85
2023/08/16 14:29:56;;;;;;;2.47;0.93;;;;;;;;;;4986516;28;100671;-85
2023/08/16 14:32:22;;;;;;;4.85;0.90;;;;;;;;;;5006066;28;101973;-85
2023/08/16 14:34:49;;;;;;;3.65;1.05;;;;;;;;;;5005156;28;99576;-85
2023/08/16 14:37:16;;;;;;;3.20;0.80;;;;;;;;;;5000058;28;98674;-86